createdAt,value
2023-02-16T00:01:53.826Z,5.43
2023-02-16T00:04:45.206Z,5.30
2023-02-16T00:07:32.382Z,6.23
2023-02-16T00:10:19.231Z,8.00
2023-02-16T00:13:05.310Z,8.20
2023-02-16T00:15:52.576Z,4.93
2023-02-16T00:18:41.446Z,6.33
2023-02-16T00:21:28.263Z,5.37
2023-02-16T00:24:15.386Z,4.80
2023-02-16T00:27:03.100Z,6.77
2023-02-16T00:29:53.992Z,5.10
2023-02-16T00:32:40.961Z,5.80
2023-02-16T00:35:54.142Z,5.83
2023-02-16T00:38:40.954Z,5.03
2023-02-16T00:41:36.923Z,5.37
2023-02-16T00:44:30.103Z,5.57
2023-02-16T00:47:17.630Z,5.17
2023-02-16T00:50:04.576Z,5.57
2023-02-16T00:52:59.181Z,5.30
2023-02-16T00:55:56.898Z,6.30
2023-02-16T00:58:50.354Z,6.27
2023-02-16T01:01:39.777Z,6.67
2023-02-16T01:04:29.450Z,6.97
2023-02-16T01:07:14.849Z,4.60
2023-02-16T01:10:00.949Z,6.70
2023-02-16T01:12:48.284Z,4.43
2023-02-16T01:15:18.305Z,6.50
2023-02-16T01:18:05.192Z,8.83
2023-02-16T01:20:52.676Z,6.27
2023-02-16T01:23:39.611Z,5.40
2023-02-16T01:26:33.591Z,6.20
2023-02-16T01:29:20.398Z,5.67
2023-02-16T01:32:10.212Z,5.70
2023-02-16T01:34:57.094Z,4.83
2023-02-16T01:37:44.130Z,5.43
2023-02-16T01:40:49.367Z,6.20
2023-02-16T01:43:44.998Z,6.67
2023-02-16T01:46:38.227Z,4.53
2023-02-16T01:49:25.398Z,5.23
2023-02-16T01:52:26.787Z,5.80
2023-02-16T01:55:18.282Z,6.60
2023-02-16T01:58:35.454Z,4.93
2023-02-16T02:01:22.526Z,6.47
2023-02-16T02:04:08.382Z,4.67
2023-02-16T02:06:57.338Z,4.50
2023-02-16T02:09:55.920Z,5.80
2023-02-16T02:13:05.633Z,8.13
2023-02-16T02:15:54.491Z,10.70
2023-02-16T02:18:41.639Z,5.87
2023-02-16T02:22:26.252Z,8.03
2023-02-16T02:25:35.427Z,6.40
2023-02-16T02:28:50.461Z,6.50
2023-02-16T02:32:02.789Z,6.07
2023-02-16T02:35:30.011Z,6.83
2023-02-16T02:38:28.340Z,7.40
2023-02-16T02:41:28.639Z,7.87
2023-02-16T02:44:22.543Z,7.33
2023-02-16T02:47:09.792Z,5.87
2023-02-16T02:49:56.806Z,6.67
2023-02-16T02:52:43.698Z,9.33
2023-02-16T02:55:30.014Z,9.07
2023-02-16T02:58:16.193Z,8.17
2023-02-16T03:01:06.138Z,6.50
2023-02-16T03:04:01.245Z,7.37
2023-02-16T03:06:53.140Z,6.47
2023-02-16T03:09:40.726Z,5.43
2023-02-16T03:12:28.118Z,6.47
2023-02-16T03:15:18.810Z,6.83
2023-02-16T03:18:05.190Z,7.10
2023-02-16T03:20:50.698Z,7.67
2023-02-16T03:23:36.676Z,6.93
2023-02-16T03:26:22.230Z,6.10
2023-02-16T03:29:09.829Z,7.93
2023-02-16T03:31:58.300Z,7.07
2023-02-16T03:34:46.362Z,8.50
2023-02-16T06:01:37.234Z,10.93
2023-02-16T06:04:04.511Z,12.70
2023-02-16T06:06:51.390Z,16.87
2023-02-16T06:09:38.314Z,9.73
2023-02-16T06:12:25.679Z,14.77
2023-02-16T06:15:12.574Z,12.10
2023-02-16T06:17:59.594Z,10.60
2023-02-16T06:20:46.471Z,13.17
2023-02-16T06:23:34.319Z,15.93
2023-02-16T06:26:21.381Z,11.97
2023-02-16T06:29:08.483Z,13.00
2023-02-16T06:31:55.495Z,13.63
2023-02-16T06:34:42.653Z,12.17
2023-02-16T06:37:29.667Z,14.53
2023-02-16T06:40:16.670Z,12.57
2023-02-16T06:43:03.915Z,14.53
2023-02-16T06:45:50.942Z,13.90
2023-02-16T06:48:37.923Z,15.40
2023-02-16T06:51:25.119Z,14.80
2023-02-16T06:54:12.125Z,16.83
2023-02-16T06:56:59.893Z,14.57
2023-02-16T06:59:46.840Z,14.53
2023-02-16T07:02:33.765Z,15.57
2023-02-16T07:05:20.695Z,15.53
2023-02-16T07:08:07.677Z,18.70
2023-02-16T07:10:54.582Z,18.37
2023-02-16T07:13:41.706Z,14.00
2023-02-16T07:16:29.535Z,16.03
2023-02-16T07:19:16.565Z,14.50
2023-02-16T07:22:03.597Z,14.27
2023-02-16T07:24:50.665Z,16.50
2023-02-16T07:27:37.597Z,17.70
2023-02-16T07:30:24.856Z,13.77
2023-02-16T07:33:11.850Z,14.17
2023-02-16T07:35:58.898Z,16.37
2023-02-16T07:38:45.871Z,15.17
2023-02-16T07:41:32.911Z,16.40
2023-02-16T07:44:27.517Z,15.77
2023-02-16T07:47:14.434Z,15.13
2023-02-16T07:50:01.455Z,16.27
2023-02-16T07:52:53.240Z,15.00
2023-02-16T07:55:40.043Z,14.33
2023-02-16T07:58:27.850Z,16.80
2023-02-16T08:01:30.497Z,14.10
2023-02-16T08:04:17.483Z,14.27
2023-02-16T08:07:04.329Z,11.60
2023-02-16T08:09:51.392Z,14.57
2023-02-16T08:12:38.585Z,14.37
2023-02-16T08:15:25.984Z,12.73
2023-02-16T08:18:12.872Z,11.20
2023-02-16T08:21:04.653Z,12.73
2023-02-16T08:23:51.859Z,12.60
2023-02-16T08:26:39.890Z,12.93
2023-02-16T08:29:27.892Z,14.07
2023-02-16T08:32:14.924Z,19.17
2023-02-16T08:35:01.918Z,14.37
2023-02-16T08:37:48.825Z,12.60
2023-02-16T08:40:35.767Z,11.80
2023-02-16T08:43:22.935Z,13.77
2023-02-16T08:46:10.272Z,8.30
2023-02-16T08:48:58.184Z,12.50
2023-02-16T08:51:45.441Z,10.50
2023-02-16T08:54:41.002Z,8.67
2023-02-16T08:57:27.928Z,8.03
2023-02-16T09:00:15.056Z,5.73
2023-02-16T09:03:01.968Z,6.70
2023-02-16T09:05:48.948Z,6.93
2023-02-16T09:08:36.446Z,7.50
2023-02-16T09:11:29.175Z,9.30
2023-02-16T09:14:16.166Z,6.70
2023-02-16T09:17:03.409Z,8.53
2023-02-16T09:19:50.340Z,7.50
2023-02-16T09:22:37.286Z,6.30
2023-02-16T09:25:24.310Z,6.97
2023-02-16T09:28:11.602Z,5.63
2023-02-16T09:30:58.912Z,5.27
2023-02-16T09:33:46.202Z,6.27
2023-02-16T09:36:33.313Z,6.20
2023-02-16T09:39:20.788Z,6.20
2023-02-16T09:42:13.473Z,5.63
2023-02-16T09:45:25.079Z,7.47
2023-02-16T09:48:13.006Z,5.40
2023-02-16T09:51:00.027Z,4.47
2023-02-16T09:53:59.450Z,3.90
2023-02-16T09:56:51.808Z,4.07
2023-02-16T09:59:56.354Z,6.20
2023-02-16T10:03:17.732Z,5.03
2023-02-16T10:06:22.990Z,4.77
2023-02-16T10:09:15.397Z,5.07
2023-02-16T10:12:23.954Z,4.73
2023-02-16T10:15:14.245Z,4.00
2023-02-16T10:18:23.600Z,5.17
2023-02-16T10:21:13.937Z,4.60
2023-02-16T10:24:18.310Z,4.17
2023-02-16T10:27:18.401Z,4.33
2023-02-16T10:30:05.309Z,4.20
2023-02-16T10:32:59.995Z,4.60
2023-02-16T10:36:15.976Z,5.10
2023-02-16T10:39:22.983Z,5.73
2023-02-16T10:42:23.461Z,7.17
2023-02-16T10:45:45.287Z,6.43
2023-02-16T10:48:34.510Z,5.10
2023-02-16T10:51:40.997Z,6.53
2023-02-16T10:54:37.642Z,5.20
2023-02-16T10:57:07.538Z,5.17
2023-02-16T10:59:39.493Z,4.47
2023-02-16T11:02:30.598Z,8.33
2023-02-16T11:05:18.546Z,5.23
2023-02-16T11:08:19.390Z,4.63
2023-02-16T11:11:09.641Z,5.40
2023-02-16T11:13:56.985Z,5.10
2023-02-16T11:16:44.357Z,5.47
2023-02-16T11:19:46.074Z,5.87
2023-02-16T11:22:52.743Z,7.83
2023-02-16T11:25:42.809Z,5.33
2023-02-16T11:28:32.327Z,6.70
2023-02-16T11:31:30.516Z,7.73
2023-02-16T11:34:27.545Z,5.10
2023-02-16T11:37:24.061Z,6.33
2023-02-16T11:40:19.827Z,7.03
2023-02-16T11:43:16.113Z,8.33
2023-02-16T11:46:03.243Z,10.63
2023-02-16T11:48:52.916Z,7.73
2023-02-16T11:51:54.449Z,8.10
2023-02-16T11:54:42.461Z,9.23
2023-02-16T11:57:33.074Z,10.80
2023-02-16T12:00:22.272Z,11.60
2023-02-16T12:03:41.740Z,10.00
2023-02-16T12:06:47.410Z,10.17
2023-02-16T12:09:52.052Z,12.50
2023-02-16T12:13:19.981Z,9.10
2023-02-16T12:16:14.376Z,11.63
2023-02-16T12:19:07.716Z,12.60
2023-02-16T12:21:41.194Z,8.50
2023-02-16T12:24:09.458Z,13.43
2023-02-16T12:26:42.532Z,12.40
2023-02-16T12:29:21.436Z,10.47
2023-02-16T12:32:16.083Z,15.03
2023-02-16T12:35:22.303Z,12.33
2023-02-16T12:38:40.389Z,11.33
2023-02-16T12:41:13.155Z,16.13
2023-02-16T12:43:46.912Z,13.80
2023-02-16T12:46:23.921Z,10.23
2023-02-16T12:48:57.526Z,9.87
2023-02-16T12:51:38.777Z,10.07
2023-02-16T12:54:17.884Z,10.37
2023-02-16T12:57:13.969Z,8.37
2023-02-16T12:59:55.484Z,11.10
2023-02-16T13:02:31.771Z,9.07
2023-02-16T13:05:13.657Z,10.70
2023-02-16T13:08:03.727Z,10.83
2023-02-16T13:11:00.745Z,11.80
2023-02-16T13:13:52.180Z,10.37
2023-02-16T13:16:53.358Z,9.50
2023-02-16T13:19:40.379Z,7.63
2023-02-16T13:22:47.816Z,7.47
2023-02-16T13:26:05.124Z,11.00
2023-02-16T13:29:33.774Z,8.20
2023-02-16T13:32:33.127Z,8.30
2023-02-16T13:35:34.926Z,9.07
2023-02-16T13:38:26.198Z,12.33
2023-02-16T13:41:40.145Z,7.10
2023-02-16T13:44:36.898Z,8.87
2023-02-16T13:47:25.218Z,8.23
2023-02-16T13:50:19.033Z,6.87
2023-02-16T13:53:06.220Z,6.43
2023-02-16T13:55:59.501Z,8.70
2023-02-16T13:58:49.633Z,8.63
2023-02-16T14:01:52.041Z,9.93
2023-02-16T14:04:41.920Z,10.00
2023-02-16T14:07:37.854Z,7.60
2023-02-16T14:10:25.554Z,9.30
2023-02-16T14:13:12.602Z,7.60
2023-02-16T14:16:11.357Z,6.27
2023-02-16T14:19:05.959Z,7.70
2023-02-16T14:22:01.770Z,8.07
2023-02-16T14:24:52.850Z,8.87
2023-02-16T14:28:04.783Z,8.87
2023-02-16T14:31:09.931Z,8.50
2023-02-16T14:34:07.984Z,7.70
2023-02-16T14:36:55.023Z,7.30
2023-02-16T14:39:58.541Z,11.50
2023-02-16T14:42:52.519Z,8.07
2023-02-16T14:46:02.661Z,6.30
2023-02-16T14:49:34.166Z,7.53
2023-02-16T14:52:26.836Z,9.03
2023-02-16T14:55:29.016Z,12.03
2023-02-16T14:58:20.323Z,8.13
2023-02-16T15:01:14.720Z,9.53
2023-02-16T15:04:22.797Z,6.43
2023-02-16T15:07:10.204Z,8.80
2023-02-16T15:10:02.762Z,11.23
2023-02-16T15:12:59.740Z,7.10
2023-02-16T15:15:56.402Z,12.37
2023-02-16T15:18:47.467Z,6.50
2023-02-16T15:21:43.542Z,8.63
2023-02-16T15:24:42.735Z,6.67
2023-02-16T15:27:40.845Z,7.67
2023-02-16T15:30:38.992Z,7.47
2023-02-16T15:33:45.272Z,6.63
2023-02-16T15:36:34.898Z,8.57
2023-02-16T15:39:37.881Z,8.70
2023-02-16T15:42:43.880Z,7.27
2023-02-16T15:45:47.310Z,8.90
2023-02-16T15:48:40.018Z,10.13
2023-02-16T15:51:33.938Z,7.67
2023-02-16T15:54:08.070Z,5.67
2023-02-16T15:56:39.283Z,6.77
2023-02-16T15:59:24.823Z,8.00
2023-02-16T16:02:15.432Z,4.73
2023-02-16T16:04:47.608Z,5.83
2023-02-16T16:07:25.066Z,6.47
2023-02-16T16:09:52.573Z,4.33
2023-02-16T16:12:20.805Z,5.60
2023-02-16T16:14:56.953Z,4.03
2023-02-16T16:17:37.962Z,7.33
2023-02-16T16:20:36.055Z,5.17
2023-02-16T16:23:06.737Z,4.53
2023-02-16T16:25:37.041Z,4.33
2023-02-16T16:28:06.596Z,5.47
2023-02-16T16:30:36.320Z,4.70
2023-02-16T16:33:09.425Z,6.73
2023-02-16T16:35:39.085Z,6.00
2023-02-16T16:38:42.834Z,6.57
2023-02-16T16:41:29.123Z,5.60
2023-02-16T16:43:57.103Z,6.57
2023-02-16T16:46:29.176Z,6.00
2023-02-16T16:49:03.624Z,4.57
2023-02-16T16:51:41.602Z,5.43
2023-02-16T16:54:35.946Z,8.73
2023-02-16T16:57:35.809Z,4.40
2023-02-16T17:00:23.555Z,6.77
2023-02-16T17:03:10.972Z,4.97
2023-02-16T17:05:57.974Z,6.43
2023-02-16T17:08:45.040Z,4.87
2023-02-16T17:11:24.035Z,4.57
2023-02-16T17:13:52.186Z,8.23
2023-02-16T17:16:24.572Z,7.13
2023-02-16T17:18:51.615Z,6.33
2023-02-16T17:21:18.709Z,7.73
2023-02-16T17:23:52.815Z,7.73
2023-02-16T17:26:22.460Z,6.43
2023-02-16T17:28:50.417Z,4.87
2023-02-16T17:31:17.558Z,5.13
2023-02-16T17:33:45.043Z,6.27
2023-02-16T17:36:15.333Z,5.20
2023-02-16T17:38:43.351Z,5.87
2023-02-16T17:41:24.145Z,6.17
2023-02-16T17:43:51.538Z,4.40
2023-02-16T17:46:20.150Z,4.60
2023-02-16T17:48:53.624Z,4.13
2023-02-16T17:51:22.693Z,6.90
2023-02-16T17:53:49.750Z,6.03
2023-02-16T17:56:20.331Z,7.33
2023-02-16T17:59:07.192Z,4.47
2023-02-16T18:01:54.581Z,4.60
2023-02-16T18:04:41.457Z,4.73
2023-02-16T18:07:35.648Z,7.57
2023-02-16T18:10:23.095Z,4.97
2023-02-16T18:13:10.081Z,3.87
2023-02-16T18:15:58.616Z,6.47
2023-02-16T18:18:45.743Z,5.43
2023-02-16T18:21:32.993Z,4.07
2023-02-16T18:24:19.903Z,4.20
2023-02-16T18:27:07.580Z,5.47
2023-02-16T18:29:54.646Z,5.73
2023-02-16T18:32:41.534Z,4.37
2023-02-16T18:35:29.466Z,7.27
2023-02-16T18:38:16.427Z,7.17
2023-02-16T18:41:04.674Z,5.63
2023-02-16T18:43:51.806Z,7.73
2023-02-16T18:46:38.754Z,5.83
2023-02-16T18:49:25.634Z,5.70
2023-02-16T18:52:12.799Z,4.53
2023-02-16T18:54:59.666Z,5.97
2023-02-16T18:57:46.758Z,4.60
2023-02-16T19:00:34.476Z,5.00
2023-02-16T19:03:21.434Z,3.57
2023-02-16T19:06:08.568Z,3.70
2023-02-16T19:08:55.757Z,4.10
2023-02-16T19:11:42.705Z,3.80
2023-02-16T19:14:30.419Z,4.00
2023-02-16T19:17:17.398Z,4.67
2023-02-16T19:20:04.337Z,3.10
2023-02-16T19:22:51.217Z,5.47
2023-02-16T19:25:38.177Z,3.93
2023-02-16T19:28:25.335Z,4.40
2023-02-16T19:31:12.345Z,2.80
2023-02-16T19:33:59.281Z,4.23
2023-02-16T19:36:48.810Z,4.03
2023-02-16T19:39:35.737Z,3.67
2023-02-16T19:42:22.716Z,3.50
2023-02-16T19:45:09.637Z,3.83
2023-02-16T19:47:56.674Z,3.77
2023-02-16T19:50:43.606Z,3.70
2023-02-16T19:53:30.543Z,4.97
2023-02-16T19:56:18.154Z,3.10
2023-02-16T19:59:05.579Z,4.60
2023-02-16T20:01:52.476Z,3.83
2023-02-16T20:04:39.570Z,4.00
2023-02-16T20:07:26.450Z,5.03
2023-02-16T20:10:13.592Z,4.80
2023-02-16T20:13:00.523Z,3.37
2023-02-16T20:15:47.563Z,3.90
2023-02-16T20:18:34.579Z,4.53
2023-02-16T20:21:24.067Z,4.60
2023-02-16T20:24:15.009Z,3.77
2023-02-16T20:27:06.288Z,3.20
2023-02-16T20:29:53.254Z,6.40
2023-02-16T20:32:46.815Z,3.10
2023-02-16T20:35:34.410Z,3.83
2023-02-16T20:38:21.421Z,3.63
2023-02-16T20:41:08.334Z,5.57
2023-02-16T20:43:57.025Z,4.97
2023-02-16T20:46:44.082Z,5.30
2023-02-16T20:49:31.047Z,4.73
2023-02-16T20:52:18.518Z,4.07
2023-02-16T20:55:05.606Z,4.43
2023-02-16T20:57:54.372Z,3.60
2023-02-16T21:00:42.093Z,4.13
2023-02-16T21:03:29.220Z,3.37
2023-02-16T21:06:17.192Z,4.30
2023-02-16T21:09:04.130Z,2.73
2023-02-16T21:11:51.049Z,3.90
2023-02-16T21:14:37.945Z,3.53
2023-02-16T21:17:25.065Z,3.77
2023-02-16T21:20:12.147Z,3.43
2023-02-16T21:22:59.142Z,2.90
2023-02-16T21:25:46.020Z,2.97
2023-02-16T21:28:13.290Z,4.40
2023-02-16T21:30:41.459Z,3.47
2023-02-16T21:33:28.327Z,3.63
2023-02-16T21:36:22.864Z,3.20
2023-02-16T21:39:09.933Z,3.53
2023-02-16T21:41:56.810Z,3.60
2023-02-16T21:44:43.685Z,3.90
2023-02-16T21:47:31.625Z,2.50
2023-02-16T21:50:19.053Z,2.73
2023-02-16T21:53:05.905Z,5.53
2023-02-16T21:55:51.551Z,4.37
2023-02-16T21:58:38.425Z,5.23
2023-02-16T22:01:25.353Z,2.77
2023-02-16T22:04:13.226Z,2.80
2023-02-16T22:07:04.690Z,3.30
2023-02-16T22:09:51.563Z,3.13
2023-02-16T22:12:38.466Z,2.77
2023-02-16T22:15:25.781Z,2.33
2023-02-16T22:17:53.096Z,3.23
2023-02-16T22:20:40.193Z,3.47
2023-02-16T22:23:27.201Z,2.40
2023-02-16T22:26:14.065Z,4.40
2023-02-16T22:29:01.072Z,2.90
2023-02-16T22:31:48.033Z,3.23
2023-02-16T22:34:38.169Z,3.17
2023-02-16T22:37:25.205Z,3.13
2023-02-16T22:40:12.206Z,3.20
2023-02-16T22:42:59.019Z,4.03
2023-02-16T22:45:46.039Z,2.50
2023-02-16T22:48:33.084Z,3.07
2023-02-16T22:51:21.088Z,4.17
2023-02-16T22:54:08.348Z,3.30
2023-02-16T22:56:55.801Z,3.40
2023-02-16T22:59:42.955Z,3.70
2023-02-16T23:02:29.869Z,3.70
2023-02-16T23:05:16.741Z,5.37
2023-02-16T23:08:03.701Z,6.03
2023-02-16T23:10:50.729Z,2.63
2023-02-16T23:13:37.778Z,4.13
2023-02-16T23:16:38.844Z,4.00
2023-02-16T23:19:25.769Z,2.27
2023-02-16T23:22:13.709Z,3.17
2023-02-16T23:25:00.734Z,4.47
2023-02-16T23:27:47.670Z,3.13
2023-02-16T23:30:34.788Z,2.17
2023-02-16T23:33:21.756Z,2.70
2023-02-16T23:36:08.892Z,2.57
2023-02-16T23:38:56.371Z,3.57
2023-02-16T23:41:43.313Z,3.83
2023-02-16T23:44:32.915Z,2.30
2023-02-16T23:47:19.978Z,3.00
2023-02-16T23:50:06.961Z,2.50
2023-02-16T23:52:54.070Z,2.87
2023-02-16T23:55:40.967Z,4.40
2023-02-16T23:58:28.088Z,2.30
